createdAt,value
2018-04-07T00:01:36.309Z,84.90
2018-04-07T00:06:39.515Z,85.40
2018-04-07T00:11:42.734Z,85.60
2018-04-07T00:16:46.065Z,86.20
2018-04-07T00:21:49.674Z,86.50
2018-04-07T00:26:53.393Z,86.60
2018-04-07T00:31:57.075Z,86.80
2018-04-07T00:37:00.301Z,86.80
2018-04-07T00:42:03.514Z,86.90
2018-04-07T00:47:07.144Z,86.40
2018-04-07T00:52:10.768Z,86.20
2018-04-07T00:57:15.245Z,86.20
2018-04-07T01:02:18.512Z,86.70
2018-04-07T01:07:21.797Z,86.70
2018-04-07T01:12:25.153Z,87.00
2018-04-07T01:17:28.478Z,87.00
2018-04-07T01:22:31.710Z,87.00
2018-04-07T01:27:35.016Z,87.30
2018-04-07T01:32:38.229Z,86.50
2018-04-07T01:37:41.539Z,86.90
2018-04-07T01:42:45.349Z,87.60
2018-04-07T01:47:48.576Z,87.60
2018-04-07T01:52:52.312Z,87.70
2018-04-07T01:57:55.584Z,87.80
2018-04-07T02:02:58.810Z,87.80
2018-04-07T02:08:04.114Z,89.30
2018-04-07T02:13:07.361Z,89.40
2018-04-07T02:18:11.009Z,90.10
2018-04-07T02:23:14.229Z,90.10
2018-04-07T02:28:17.444Z,91.00
2018-04-07T02:33:20.678Z,91.10
2018-04-07T02:38:23.906Z,91.30
2018-04-07T02:43:27.523Z,91.10
2018-04-07T02:48:30.742Z,91.10
2018-04-07T02:53:33.993Z,90.50
2018-04-07T02:58:37.329Z,90.10
2018-04-07T03:03:40.932Z,90.00
2018-04-07T03:08:44.152Z,90.00
2018-04-07T03:13:47.752Z,90.10
2018-04-07T03:18:51.075Z,90.10
2018-04-07T03:23:54.701Z,90.90
2018-04-07T03:28:58.375Z,90.60
2018-04-07T03:34:01.599Z,90.60
2018-04-07T03:39:05.243Z,89.10
2018-04-07T03:44:08.464Z,89.10
2018-04-07T03:49:11.715Z,91.70
2018-04-07T03:54:14.925Z,92.50
2018-04-07T03:59:18.284Z,92.80
2018-04-07T04:04:21.631Z,93.80
2018-04-07T04:09:24.865Z,94.40
2018-04-07T04:14:28.507Z,95.20
2018-04-07T04:19:31.745Z,95.20
2018-04-07T04:24:35.078Z,94.90
2018-04-07T04:29:38.526Z,94.90
2018-04-07T04:34:41.759Z,95.20
2018-04-07T04:39:45.078Z,94.40
2018-04-07T04:44:48.312Z,94.50
2018-04-07T04:49:51.531Z,94.50
2018-04-07T04:54:54.841Z,93.80
2018-04-07T04:59:58.458Z,94.50
2018-04-07T05:05:02.051Z,93.60
2018-04-07T05:10:05.676Z,93.40
2018-04-07T05:15:09.483Z,93.40
2018-04-07T05:20:12.959Z,93.40
2018-04-07T05:25:16.161Z,93.40
2018-04-07T05:30:19.610Z,93.70
2018-04-07T05:35:22.840Z,93.60
2018-04-07T05:40:26.571Z,93.40
2018-04-07T05:45:29.840Z,93.00
2018-04-07T05:50:33.596Z,92.70
2018-04-07T05:55:36.839Z,92.50
2018-04-07T06:00:40.056Z,91.60
2018-04-07T06:05:44.570Z,90.70
2018-04-07T06:10:52.556Z,90.40
2018-04-07T06:15:55.765Z,90.30
2018-04-07T06:20:59.154Z,89.80
2018-04-07T06:26:02.853Z,88.70
2018-04-07T06:31:06.084Z,88.70
2018-04-07T06:36:09.336Z,87.40
2018-04-07T06:41:12.553Z,87.00
2018-04-07T06:46:15.827Z,86.40
2018-04-07T06:51:19.061Z,84.70
2018-04-07T06:56:22.430Z,84.80
2018-04-07T07:01:25.657Z,85.10
2018-04-07T07:06:28.864Z,84.60
2018-04-07T07:11:32.103Z,84.10
2018-04-07T07:16:35.321Z,82.70
2018-04-07T07:21:38.979Z,82.90
2018-04-07T07:26:42.221Z,82.90
2018-04-07T07:31:45.456Z,82.50
2018-04-07T07:36:49.169Z,83.90
2018-04-07T07:41:52.785Z,83.50
2018-04-07T07:46:56.047Z,83.50
2018-04-07T07:51:59.287Z,82.40
2018-04-07T07:57:02.500Z,83.60
2018-04-07T08:02:06.114Z,82.70
2018-04-07T08:07:09.335Z,82.70
2018-04-07T08:12:13.010Z,82.60
2018-04-07T08:17:16.339Z,82.60
2018-04-07T08:22:19.543Z,82.40
2018-04-07T08:27:22.767Z,81.60
2018-04-07T08:32:26.376Z,82.90
2018-04-07T08:37:29.994Z,82.80
2018-04-07T08:42:33.592Z,80.50
2018-04-07T08:47:36.904Z,80.50
2018-04-07T08:52:40.524Z,82.40
2018-04-07T08:57:44.142Z,80.90
2018-04-07T09:02:47.948Z,79.80
2018-04-07T09:07:51.598Z,78.30
2018-04-07T09:12:54.808Z,78.30
2018-04-07T09:17:58.048Z,79.00
2018-04-07T09:23:01.272Z,79.40
2018-04-07T09:28:04.504Z,78.40
2018-04-07T09:33:08.161Z,78.80
2018-04-07T09:38:11.373Z,78.80
2018-04-07T09:43:14.611Z,78.00
2018-04-07T09:48:17.889Z,77.70
2018-04-07T09:53:21.244Z,77.20
2018-04-07T09:58:24.921Z,74.30
2018-04-07T10:03:28.224Z,74.30
2018-04-07T10:08:31.494Z,72.70
2018-04-07T10:13:34.753Z,74.00
2018-04-07T10:18:38.082Z,72.50
2018-04-07T10:23:41.713Z,72.20
2018-04-07T10:28:44.927Z,72.20
2018-04-07T10:33:48.157Z,72.20
2018-04-07T10:38:51.392Z,71.90
2018-04-07T10:43:54.629Z,69.80
2018-04-07T10:48:58.337Z,69.60
2018-04-07T10:54:02.021Z,68.40
2018-04-07T10:59:05.247Z,68.40
2018-04-07T11:04:08.463Z,67.30
2018-04-07T11:09:12.068Z,66.90
2018-04-07T11:14:15.353Z,66.90
2018-04-07T11:19:18.593Z,67.10
2018-04-07T11:24:22.272Z,64.90
2018-04-07T11:29:25.503Z,64.90
2018-04-07T11:34:28.716Z,61.00
2018-04-07T11:39:37.442Z,55.70
2018-04-07T11:50:12.288Z,52.00
2018-04-07T11:55:15.834Z,51.90
2018-04-07T12:00:19.537Z,50.80
2018-04-07T12:05:22.899Z,50.80
2018-04-07T12:10:26.137Z,49.20
2018-04-07T12:15:29.573Z,49.10
2018-04-07T12:20:32.898Z,48.70
2018-04-07T12:25:36.645Z,48.50
2018-04-07T12:30:40.082Z,48.50
2018-04-07T12:35:43.845Z,49.10
2018-04-07T12:40:47.664Z,48.30
2018-04-07T12:45:50.968Z,48.30
2018-04-07T12:50:54.774Z,45.90
2018-04-07T12:55:58.066Z,45.90
2018-04-07T13:01:01.819Z,45.90
2018-04-07T13:06:05.516Z,45.40
2018-04-07T13:11:08.861Z,45.50
2018-04-07T13:16:12.438Z,46.50
2018-04-07T13:21:16.175Z,52.10
2018-04-07T13:26:19.852Z,55.30
2018-04-07T13:31:23.191Z,55.30
2018-04-07T13:36:26.829Z,52.60
2018-04-07T13:41:30.056Z,52.60
2018-04-07T13:46:33.309Z,54.10
2018-04-07T13:51:36.529Z,54.30
2018-04-07T13:56:40.156Z,51.80
2018-04-07T14:01:43.428Z,51.70
2018-04-07T14:06:46.670Z,50.50
2018-04-07T14:11:49.883Z,50.40
2018-04-07T14:16:53.136Z,50.30
2018-04-07T14:21:56.375Z,50.60
2018-04-07T14:27:00.090Z,51.00
2018-04-07T14:32:03.792Z,49.90
2018-04-07T14:37:07.029Z,49.90
2018-04-07T14:42:10.248Z,49.50
2018-04-07T14:47:13.488Z,49.10
2018-04-07T14:57:51.199Z,49.00
2018-04-07T15:02:54.593Z,51.80
2018-04-07T15:07:57.833Z,51.70
2018-04-07T15:13:01.069Z,53.60
2018-04-07T15:18:04.303Z,54.10
2018-04-07T15:23:07.521Z,55.80
2018-04-07T15:28:10.736Z,54.00
2018-04-07T15:33:14.060Z,54.00
2018-04-07T15:38:17.287Z,53.40
2018-04-07T15:43:20.495Z,54.80
2018-04-07T15:48:23.777Z,54.10
2018-04-07T15:53:26.979Z,53.20
2018-04-07T15:58:30.215Z,53.80
2018-04-07T16:03:33.639Z,52.80
2018-04-07T16:08:36.888Z,52.90
2018-04-07T16:13:40.109Z,53.20
2018-04-07T16:18:43.344Z,51.70
2018-04-07T16:23:46.573Z,56.40
2018-04-07T16:28:50.281Z,59.80
2018-04-07T16:33:54.153Z,59.80
2018-04-07T16:38:57.375Z,58.40
2018-04-07T16:44:00.713Z,58.20
2018-04-07T16:49:03.928Z,58.40
2018-04-07T16:54:07.547Z,59.50
2018-04-07T16:59:11.254Z,61.30
2018-04-07T17:04:14.868Z,63.10
2018-04-07T17:09:18.116Z,63.10
2018-04-07T17:14:21.357Z,64.20
2018-04-07T17:19:24.598Z,64.10
2018-04-07T17:24:28.241Z,63.70
2018-04-07T17:29:31.472Z,63.70
2018-04-07T17:34:34.689Z,65.80
2018-04-07T17:39:37.916Z,65.70
2018-04-07T17:44:41.227Z,66.60
2018-04-07T17:49:44.447Z,66.90
2018-04-07T17:54:48.070Z,68.50
2018-04-07T17:59:51.312Z,68.50
2018-04-07T18:04:54.549Z,69.30
2018-04-07T18:09:57.781Z,71.70
2018-04-07T18:15:01.081Z,72.20
2018-04-07T18:20:04.738Z,72.20
2018-04-07T18:25:08.089Z,72.20
2018-04-07T18:30:11.798Z,74.00
2018-04-07T18:35:15.031Z,74.00
2018-04-07T18:40:18.658Z,71.90
2018-04-07T18:45:21.871Z,71.90
2018-04-07T18:50:25.102Z,72.50
2018-04-07T18:55:28.346Z,71.50
2018-04-07T19:00:32.643Z,71.20
2018-04-07T19:05:35.859Z,71.20
2018-04-07T19:10:39.076Z,69.30
2018-04-07T19:15:42.317Z,67.00
2018-04-07T19:20:45.613Z,68.30
2018-04-07T19:25:49.807Z,69.40
2018-04-07T19:30:53.045Z,69.40
2018-04-07T19:35:56.730Z,69.50
2018-04-07T19:40:59.932Z,69.50
2018-04-07T19:46:03.165Z,70.50
2018-04-07T19:51:06.380Z,70.90
2018-04-07T19:56:10.088Z,72.80
2018-04-07T20:01:13.313Z,72.80
2018-04-07T20:06:17.012Z,73.80
2018-04-07T20:11:20.250Z,73.80
2018-04-07T20:16:23.477Z,74.00
2018-04-07T20:21:26.687Z,75.70
2018-04-07T20:26:29.931Z,75.50
2018-04-07T20:31:33.348Z,75.90
2018-04-07T20:36:36.967Z,76.90
2018-04-07T20:41:40.676Z,76.50
2018-04-07T20:46:43.915Z,76.60
2018-04-07T20:51:47.136Z,77.30
2018-04-07T20:56:50.345Z,77.90
2018-04-07T21:01:53.580Z,77.10
2018-04-07T21:06:56.807Z,76.80
2018-04-07T21:12:00.036Z,77.80
2018-04-07T21:17:03.253Z,78.60
2018-04-07T21:22:06.488Z,77.80
2018-04-07T21:27:09.712Z,77.50
2018-04-07T21:32:13.182Z,78.10
2018-04-07T21:37:16.406Z,78.70
2018-04-07T21:42:19.627Z,79.20
2018-04-07T21:47:22.864Z,80.10
2018-04-07T21:52:26.503Z,80.10
2018-04-07T21:57:29.736Z,80.10
2018-04-07T22:02:32.966Z,80.00
2018-04-07T22:07:36.197Z,79.60
2018-04-07T22:12:39.894Z,80.10
2018-04-07T22:17:43.360Z,80.20
2018-04-07T22:22:46.904Z,80.00
2018-04-07T22:27:50.341Z,80.00
2018-04-07T22:32:53.823Z,80.30
2018-04-07T22:37:57.253Z,80.10
2018-04-07T22:43:00.696Z,79.40
2018-04-07T22:48:04.367Z,79.40
2018-04-07T22:53:07.629Z,79.40
2018-04-07T22:58:10.852Z,80.80
2018-04-07T23:03:14.971Z,81.50
2018-04-07T23:08:18.438Z,82.10
2018-04-07T23:13:21.847Z,82.10
2018-04-07T23:18:25.341Z,82.70
2018-04-07T23:23:33.520Z,83.10
2018-04-07T23:28:38.080Z,82.90
2018-04-07T23:33:41.517Z,81.90
2018-04-07T23:38:45.046Z,81.10
2018-04-07T23:43:48.673Z,82.00
2018-04-07T23:48:52.280Z,82.50
2018-04-07T23:53:55.886Z,82.90
2018-04-07T23:58:59.104Z,82.90
